Yellow Springs, OH (45387)

9:11 AM EDT on March 29, 2017 (GMT -0400)
Yellow Springs | | Change Station

Elev 980 ft 39.79 °N, 83.88 °W | Updated 11 seconds ago

Overcast
Overcast
41.9 °F
Feels Like 42 °F
N
0.2
Wind Variable Wind from SE
Gusts 2.5 mph

Today
High -- | Low -- °F
--% Chance of Precip.
Yesterday
High -- | Low -- °F
Precip. -- in
Pressure 30.22 in
Visibility 10.0 miles
Clouds Overcast 800 ft
Windchill 42 °F
Dew Point 41 °F
Humidity 98%
Rainfall 0.00 in
Snow Depth Not available.
7:24 AM 7:56 PM
Waxing Crescent, 3% visible
METAR KSGH 291256Z AUTO 06012KT 10SM OVC008 05/04 A3020 RMK AO2 CIG 006V011 SLP233 T00500039
Pressure 30.22 in
Visibility 10.0 miles
Clouds Overcast 800 ft
Windchill 42 °F
Dew Point 41 °F
Humidity 98%
Rainfall 0.00 in
Snow Depth Not available.
7:24 AM 7:56 PM
Waxing Crescent, 3% visible
METAR KSGH 291256Z AUTO 06012KT 10SM OVC008 05/04 A3020 RMK AO2 CIG 006V011 SLP233 T00500039

Get Severe Weather Alerts

Thanks for signing up!

Be on the lookout for a verification email in your inbox.

You'll start receiving the daily forecast at 8 AM.

×

10-Day Weather Forecast

Almanac

Astronomy

Mar. 29, 2017 Rise Set
Actual Time
Civil Twilight
Nautical Twilight
Astronomical Twilight
Moon
Length of Visible Light
Length of Day
Tomorrow will be .
, % of the Moon is Illuminated

Today's Extremes

State Highs State Lows

Community

WunderPhotos

Upload Photos

1,962,540 photos uploaded!

WunderBlog® & News

Nearby

Air Quality

  Air Quality AQ Index Pollutant
Not available.

Snow Depth

Station Depth Elevation

Earthquake Activity

City Distance Mag. Time & Date
Minimum magnitude displayed is 2.5.

Earthquake Activity

City Distance Mag. Time & Date
Minimum magnitude displayed is 2.5.

Coastal Water Temperatures

Place Temperature

Stations

Nearby Weather Stations

Station Location Temp. Windchill Dew Point Humidity Wind Precip. Elev Updated Type
                   

Watches & Warnings

There are currently no watches in effect.